sensor_id;sensor_type;location;lat;lon;timestamp;P1;durP1;ratioP1;P2;durP2;ratioP2
12218;SDS011;6172;42.646;23.344;2023-03-08T00:02:21;3.67;;;2.23;;
12218;SDS011;6172;42.646;23.344;2023-03-08T00:04:47;3.87;;;1.97;;
12218;SDS011;6172;42.646;23.344;2023-03-08T00:07:16;4.03;;;1.80;;
12218;SDS011;6172;42.646;23.344;2023-03-08T00:09:43;2.77;;;2.20;;
12218;SDS011;6172;42.646;23.344;2023-03-08T00:12:10;3.40;;;2.10;;
12218;SDS011;6172;42.646;23.344;2023-03-08T00:14:39;3.60;;;2.37;;
12218;SDS011;6172;42.646;23.344;2023-03-08T00:17:06;5.00;;;2.23;;
12218;SDS011;6172;42.646;23.344;2023-03-08T00:19:34;2.23;;;1.80;;
12218;SDS011;6172;42.646;23.344;2023-03-08T00:22:01;3.53;;;2.17;;
12218;SDS011;6172;42.646;23.344;2023-03-08T00:24:28;4.37;;;2.60;;
12218;SDS011;6172;42.646;23.344;2023-03-08T00:26:56;3.03;;;2.07;;
12218;SDS011;6172;42.646;23.344;2023-03-08T00:29:23;4.60;;;1.87;;
12218;SDS011;6172;42.646;23.344;2023-03-08T00:31:52;4.07;;;2.33;;
12218;SDS011;6172;42.646;23.344;2023-03-08T00:34:19;4.80;;;2.43;;
12218;SDS011;6172;42.646;23.344;2023-03-08T00:36:46;6.43;;;2.00;;
12218;SDS011;6172;42.646;23.344;2023-03-08T00:39:12;4.83;;;2.00;;
12218;SDS011;6172;42.646;23.344;2023-03-08T00:41:40;4.30;;;1.90;;
12218;SDS011;6172;42.646;23.344;2023-03-08T00:44:08;4.47;;;1.93;;
12218;SDS011;6172;42.646;23.344;2023-03-08T00:46:36;5.50;;;2.10;;
12218;SDS011;6172;42.646;23.344;2023-03-08T00:49:07;3.47;;;2.00;;
12218;SDS011;6172;42.646;23.344;2023-03-08T00:51:38;4.07;;;2.03;;
12218;SDS011;6172;42.646;23.344;2023-03-08T00:54:06;5.80;;;2.27;;
12218;SDS011;6172;42.646;23.344;2023-03-08T00:56:32;5.57;;;2.00;;
12218;SDS011;6172;42.646;23.344;2023-03-08T00:58:59;2.07;;;1.63;;
12218;SDS011;6172;42.646;23.344;2023-03-08T01:01:26;5.07;;;1.97;;
12218;SDS011;6172;42.646;23.344;2023-03-08T01:03:53;3.40;;;1.90;;
12218;SDS011;6172;42.646;23.344;2023-03-08T01:06:23;3.53;;;2.17;;
12218;SDS011;6172;42.646;23.344;2023-03-08T01:08:50;2.97;;;1.83;;
12218;SDS011;6172;42.646;23.344;2023-03-08T01:11:19;3.70;;;2.50;;
12218;SDS011;6172;42.646;23.344;2023-03-08T01:13:48;4.23;;;2.07;;
12218;SDS011;6172;42.646;23.344;2023-03-08T01:16:17;4.87;;;2.67;;
12218;SDS011;6172;42.646;23.344;2023-03-08T01:18:48;4.13;;;2.37;;
12218;SDS011;6172;42.646;23.344;2023-03-08T01:21:17;8.00;;;2.97;;
12218;SDS011;6172;42.646;23.344;2023-03-08T01:23:45;4.80;;;2.30;;
12218;SDS011;6172;42.646;23.344;2023-03-08T01:26:13;3.03;;;2.03;;
12218;SDS011;6172;42.646;23.344;2023-03-08T01:28:41;3.40;;;2.13;;
12218;SDS011;6172;42.646;23.344;2023-03-08T01:31:10;3.63;;;2.30;;
12218;SDS011;6172;42.646;23.344;2023-03-08T01:33:38;4.17;;;2.40;;
12218;SDS011;6172;42.646;23.344;2023-03-08T01:36:08;4.47;;;2.70;;
12218;SDS011;6172;42.646;23.344;2023-03-08T01:38:37;3.87;;;2.17;;
12218;SDS011;6172;42.646;23.344;2023-03-08T01:41:06;5.13;;;2.20;;
12218;SDS011;6172;42.646;23.344;2023-03-08T01:43:39;3.50;;;2.30;;
12218;SDS011;6172;42.646;23.344;2023-03-08T01:46:20;2.70;;;1.90;;
12218;SDS011;6172;42.646;23.344;2023-03-08T01:48:51;2.73;;;2.17;;
12218;SDS011;6172;42.646;23.344;2023-03-08T01:51:24;4.53;;;2.30;;
12218;SDS011;6172;42.646;23.344;2023-03-08T01:53:56;4.47;;;2.90;;
12218;SDS011;6172;42.646;23.344;2023-03-08T01:56:26;3.40;;;2.43;;
12218;SDS011;6172;42.646;23.344;2023-03-08T01:58:54;4.97;;;2.83;;
12218;SDS011;6172;42.646;23.344;2023-03-08T02:01:23;4.87;;;3.27;;
12218;SDS011;6172;42.646;23.344;2023-03-08T02:03:50;6.60;;;3.43;;
12218;SDS011;6172;42.646;23.344;2023-03-08T02:06:18;6.50;;;2.83;;
12218;SDS011;6172;42.646;23.344;2023-03-08T02:08:46;11.00;;;3.83;;
12218;SDS011;6172;42.646;23.344;2023-03-08T02:11:13;5.17;;;3.27;;
12218;SDS011;6172;42.646;23.344;2023-03-08T02:13:44;8.43;;;3.43;;
12218;SDS011;6172;42.646;23.344;2023-03-08T02:16:14;7.30;;;3.77;;
12218;SDS011;6172;42.646;23.344;2023-03-08T02:18:50;8.17;;;4.10;;
12218;SDS011;6172;42.646;23.344;2023-03-08T02:21:18;6.67;;;3.60;;
12218;SDS011;6172;42.646;23.344;2023-03-08T02:26:43;6.33;;;3.77;;
12218;SDS011;6172;42.646;23.344;2023-03-08T02:29:12;7.30;;;3.97;;
12218;SDS011;6172;42.646;23.344;2023-03-08T02:31:41;7.70;;;4.33;;
12218;SDS011;6172;42.646;23.344;2023-03-08T02:34:08;7.30;;;3.93;;
12218;SDS011;6172;42.646;23.344;2023-03-08T02:36:35;5.33;;;3.33;;
12218;SDS011;6172;42.646;23.344;2023-03-08T02:39:04;5.13;;;3.00;;
12218;SDS011;6172;42.646;23.344;2023-03-08T02:41:33;5.60;;;3.43;;
12218;SDS011;6172;42.646;23.344;2023-03-08T02:44:00;4.90;;;3.13;;
12218;SDS011;6172;42.646;23.344;2023-03-08T02:46:28;8.30;;;3.47;;
12218;SDS011;6172;42.646;23.344;2023-03-08T02:48:56;7.20;;;3.40;;
12218;SDS011;6172;42.646;23.344;2023-03-08T02:51:23;5.13;;;3.20;;
12218;SDS011;6172;42.646;23.344;2023-03-08T02:53:51;4.23;;;2.93;;
12218;SDS011;6172;42.646;23.344;2023-03-08T02:56:20;4.93;;;3.17;;
12218;SDS011;6172;42.646;23.344;2023-03-08T02:58:52;6.30;;;3.70;;
12218;SDS011;6172;42.646;23.344;2023-03-08T03:01:19;6.50;;;3.60;;
12218;SDS011;6172;42.646;23.344;2023-03-08T03:03:51;5.83;;;3.67;;
12218;SDS011;6172;42.646;23.344;2023-03-08T03:06:20;8.87;;;3.90;;
12218;SDS011;6172;42.646;23.344;2023-03-08T03:08:48;7.37;;;4.23;;
12218;SDS011;6172;42.646;23.344;2023-03-08T03:11:17;6.40;;;3.60;;
12218;SDS011;6172;42.646;23.344;2023-03-08T03:13:46;6.47;;;3.63;;
12218;SDS011;6172;42.646;23.344;2023-03-08T03:16:20;6.47;;;3.50;;
12218;SDS011;6172;42.646;23.344;2023-03-08T03:18:47;4.60;;;3.67;;
12218;SDS011;6172;42.646;23.344;2023-03-08T03:21:15;4.23;;;3.40;;
12218;SDS011;6172;42.646;23.344;2023-03-08T03:23:43;5.90;;;3.73;;
12218;SDS011;6172;42.646;23.344;2023-03-08T03:26:11;4.77;;;3.57;;
12218;SDS011;6172;42.646;23.344;2023-03-08T03:28:40;8.57;;;3.73;;
12218;SDS011;6172;42.646;23.344;2023-03-08T03:31:08;6.10;;;3.67;;
12218;SDS011;6172;42.646;23.344;2023-03-08T03:33:37;6.80;;;3.93;;
12218;SDS011;6172;42.646;23.344;2023-03-08T03:36:05;5.33;;;3.50;;
12218;SDS011;6172;42.646;23.344;2023-03-08T03:38:36;6.37;;;3.97;;
12218;SDS011;6172;42.646;23.344;2023-03-08T03:41:04;4.53;;;3.77;;
12218;SDS011;6172;42.646;23.344;2023-03-08T03:43:33;5.80;;;3.73;;
12218;SDS011;6172;42.646;23.344;2023-03-08T03:46:02;9.33;;;3.63;;
12218;SDS011;6172;42.646;23.344;2023-03-08T03:48:30;4.97;;;3.10;;
12218;SDS011;6172;42.646;23.344;2023-03-08T03:51:00;8.70;;;3.97;;
12218;SDS011;6172;42.646;23.344;2023-03-08T03:53:28;11.37;;;3.77;;
12218;SDS011;6172;42.646;23.344;2023-03-08T03:56:00;7.43;;;4.03;;
12218;SDS011;6172;42.646;23.344;2023-03-08T03:58:29;6.57;;;3.30;;
12218;SDS011;6172;42.646;23.344;2023-03-08T04:00:59;6.30;;;3.70;;
12218;SDS011;6172;42.646;23.344;2023-03-08T04:03:28;6.77;;;3.93;;
12218;SDS011;6172;42.646;23.344;2023-03-08T04:06:05;7.27;;;3.83;;
12218;SDS011;6172;42.646;23.344;2023-03-08T04:08:34;8.23;;;3.73;;
12218;SDS011;6172;42.646;23.344;2023-03-08T04:11:07;7.27;;;3.70;;
12218;SDS011;6172;42.646;23.344;2023-03-08T04:13:37;5.10;;;3.67;;
12218;SDS011;6172;42.646;23.344;2023-03-08T04:16:08;7.93;;;4.20;;
12218;SDS011;6172;42.646;23.344;2023-03-08T04:18:36;7.43;;;3.57;;
12218;SDS011;6172;42.646;23.344;2023-03-08T04:21:02;8.30;;;4.40;;
12218;SDS011;6172;42.646;23.344;2023-03-08T04:23:31;7.53;;;3.37;;
12218;SDS011;6172;42.646;23.344;2023-03-08T04:26:00;8.20;;;3.33;;
12218;SDS011;6172;42.646;23.344;2023-03-08T04:28:28;7.17;;;2.83;;
12218;SDS011;6172;42.646;23.344;2023-03-08T04:30:55;7.30;;;3.53;;
12218;SDS011;6172;42.646;23.344;2023-03-08T04:33:23;10.77;;;4.50;;
12218;SDS011;6172;42.646;23.344;2023-03-08T04:35:49;10.33;;;3.90;;
12218;SDS011;6172;42.646;23.344;2023-03-08T04:38:18;8.77;;;4.00;;
12218;SDS011;6172;42.646;23.344;2023-03-08T04:40:46;7.63;;;4.00;;
12218;SDS011;6172;42.646;23.344;2023-03-08T04:43:29;7.50;;;3.73;;
12218;SDS011;6172;42.646;23.344;2023-03-08T04:45:57;8.80;;;3.97;;
12218;SDS011;6172;42.646;23.344;2023-03-08T04:48:24;6.73;;;3.60;;
12218;SDS011;6172;42.646;23.344;2023-03-08T04:50:54;8.37;;;4.33;;
12218;SDS011;6172;42.646;23.344;2023-03-08T04:53:25;11.47;;;4.60;;
12218;SDS011;6172;42.646;23.344;2023-03-08T04:55:54;9.77;;;5.20;;
12218;SDS011;6172;42.646;23.344;2023-03-08T04:58:23;10.10;;;3.87;;
12218;SDS011;6172;42.646;23.344;2023-03-08T05:00:52;7.27;;;4.00;;
12218;SDS011;6172;42.646;23.344;2023-03-08T05:03:19;7.27;;;4.13;;
12218;SDS011;6172;42.646;23.344;2023-03-08T05:05:46;5.37;;;4.20;;
12218;SDS011;6172;42.646;23.344;2023-03-08T05:08:15;11.63;;;4.17;;
12218;SDS011;6172;42.646;23.344;2023-03-08T05:10:51;7.43;;;3.83;;
12218;SDS011;6172;42.646;23.344;2023-03-08T05:13:22;7.67;;;4.27;;
12218;SDS011;6172;42.646;23.344;2023-03-08T05:15:49;7.37;;;3.90;;
12218;SDS011;6172;42.646;23.344;2023-03-08T05:18:16;8.67;;;4.50;;
12218;SDS011;6172;42.646;23.344;2023-03-08T05:20:51;7.20;;;3.97;;
12218;SDS011;6172;42.646;23.344;2023-03-08T05:23:22;11.03;;;4.20;;
12218;SDS011;6172;42.646;23.344;2023-03-08T05:25:54;6.50;;;3.60;;
12218;SDS011;6172;42.646;23.344;2023-03-08T05:28:24;7.97;;;3.90;;
12218;SDS011;6172;42.646;23.344;2023-03-08T05:30:58;6.93;;;4.20;;
12218;SDS011;6172;42.646;23.344;2023-03-08T05:33:26;6.47;;;4.30;;
12218;SDS011;6172;42.646;23.344;2023-03-08T05:35:53;6.53;;;4.60;;
12218;SDS011;6172;42.646;23.344;2023-03-08T05:38:22;8.63;;;4.67;;
12218;SDS011;6172;42.646;23.344;2023-03-08T05:40:51;6.97;;;4.67;;
12218;SDS011;6172;42.646;23.344;2023-03-08T05:43:19;9.17;;;4.53;;
12218;SDS011;6172;42.646;23.344;2023-03-08T05:45:53;7.97;;;4.30;;
12218;SDS011;6172;42.646;23.344;2023-03-08T05:48:23;7.43;;;4.77;;
12218;SDS011;6172;42.646;23.344;2023-03-08T05:50:50;10.10;;;5.50;;
12218;SDS011;6172;42.646;23.344;2023-03-08T05:53:20;7.67;;;4.83;;
12218;SDS011;6172;42.646;23.344;2023-03-08T05:55:49;8.23;;;4.90;;
12218;SDS011;6172;42.646;23.344;2023-03-08T05:58:16;14.40;;;4.97;;
12218;SDS011;6172;42.646;23.344;2023-03-08T06:00:45;12.37;;;5.37;;
12218;SDS011;6172;42.646;23.344;2023-03-08T06:03:13;20.53;;;5.50;;
12218;SDS011;6172;42.646;23.344;2023-03-08T06:05:40;16.53;;;6.03;;
12218;SDS011;6172;42.646;23.344;2023-03-08T06:08:07;14.87;;;5.57;;
12218;SDS011;6172;42.646;23.344;2023-03-08T06:10:34;20.93;;;6.37;;
12218;SDS011;6172;42.646;23.344;2023-03-08T06:13:04;17.53;;;8.30;;
12218;SDS011;6172;42.646;23.344;2023-03-08T06:15:37;25.50;;;8.20;;
12218;SDS011;6172;42.646;23.344;2023-03-08T06:18:07;25.53;;;9.70;;
12218;SDS011;6172;42.646;23.344;2023-03-08T06:20:35;26.77;;;10.53;;
12218;SDS011;6172;42.646;23.344;2023-03-08T06:23:05;28.33;;;10.83;;
12218;SDS011;6172;42.646;23.344;2023-03-08T06:25:37;21.17;;;8.97;;
12218;SDS011;6172;42.646;23.344;2023-03-08T06:28:05;15.10;;;7.50;;
12218;SDS011;6172;42.646;23.344;2023-03-08T06:30:35;15.67;;;7.63;;
12218;SDS011;6172;42.646;23.344;2023-03-08T06:33:02;25.77;;;9.10;;
12218;SDS011;6172;42.646;23.344;2023-03-08T06:35:32;25.43;;;8.60;;
12218;SDS011;6172;42.646;23.344;2023-03-08T06:38:03;12.77;;;6.40;;
12218;SDS011;6172;42.646;23.344;2023-03-08T06:40:31;21.20;;;6.60;;
12218;SDS011;6172;42.646;23.344;2023-03-08T06:43:00;13.80;;;6.50;;
12218;SDS011;6172;42.646;23.344;2023-03-08T06:45:28;12.07;;;6.37;;
12218;SDS011;6172;42.646;23.344;2023-03-08T06:47:55;18.27;;;6.23;;
12218;SDS011;6172;42.646;23.344;2023-03-08T06:50:24;13.00;;;5.77;;
12218;SDS011;6172;42.646;23.344;2023-03-08T06:52:54;18.90;;;5.70;;
12218;SDS011;6172;42.646;23.344;2023-03-08T06:55:21;12.80;;;5.27;;
12218;SDS011;6172;42.646;23.344;2023-03-08T06:57:48;12.33;;;5.00;;
12218;SDS011;6172;42.646;23.344;2023-03-08T07:00:16;15.30;;;6.47;;
12218;SDS011;6172;42.646;23.344;2023-03-08T07:02:43;18.87;;;6.10;;
12218;SDS011;6172;42.646;23.344;2023-03-08T07:05:12;11.83;;;5.43;;
12218;SDS011;6172;42.646;23.344;2023-03-08T07:07:39;13.13;;;5.33;;
12218;SDS011;6172;42.646;23.344;2023-03-08T07:10:09;12.27;;;5.90;;
12218;SDS011;6172;42.646;23.344;2023-03-08T07:12:39;10.77;;;6.10;;
12218;SDS011;6172;42.646;23.344;2023-03-08T07:15:08;12.17;;;5.30;;
12218;SDS011;6172;42.646;23.344;2023-03-08T07:17:38;11.50;;;5.57;;
12218;SDS011;6172;42.646;23.344;2023-03-08T07:20:06;12.67;;;5.87;;
12218;SDS011;6172;42.646;23.344;2023-03-08T07:22:33;10.10;;;6.20;;
12218;SDS011;6172;42.646;23.344;2023-03-08T07:25:03;9.60;;;4.87;;
12218;SDS011;6172;42.646;23.344;2023-03-08T07:27:32;9.23;;;5.20;;
12218;SDS011;6172;42.646;23.344;2023-03-08T07:29:59;11.03;;;4.63;;
12218;SDS011;6172;42.646;23.344;2023-03-08T07:32:31;9.70;;;4.27;;
12218;SDS011;6172;42.646;23.344;2023-03-08T07:34:59;7.97;;;3.90;;
12218;SDS011;6172;42.646;23.344;2023-03-08T07:37:26;7.30;;;4.30;;
12218;SDS011;6172;42.646;23.344;2023-03-08T07:39:53;8.47;;;3.63;;
12218;SDS011;6172;42.646;23.344;2023-03-08T07:42:23;9.70;;;3.60;;
12218;SDS011;6172;42.646;23.344;2023-03-08T07:44:56;6.53;;;3.70;;
12218;SDS011;6172;42.646;23.344;2023-03-08T07:47:23;6.67;;;3.77;;
12218;SDS011;6172;42.646;23.344;2023-03-08T07:49:53;6.73;;;3.40;;
12218;SDS011;6172;42.646;23.344;2023-03-08T07:52:20;5.83;;;4.00;;
12218;SDS011;6172;42.646;23.344;2023-03-08T07:54:53;5.90;;;4.20;;
12218;SDS011;6172;42.646;23.344;2023-03-08T07:57:21;8.03;;;4.00;;
12218;SDS011;6172;42.646;23.344;2023-03-08T07:59:52;9.47;;;4.03;;
12218;SDS011;6172;42.646;23.344;2023-03-08T08:02:27;6.53;;;3.90;;
12218;SDS011;6172;42.646;23.344;2023-03-08T08:04:54;5.93;;;3.97;;
12218;SDS011;6172;42.646;23.344;2023-03-08T08:07:21;7.80;;;4.60;;
12218;SDS011;6172;42.646;23.344;2023-03-08T08:09:54;8.67;;;4.63;;
12218;SDS011;6172;42.646;23.344;2023-03-08T08:12:22;13.27;;;4.60;;
12218;SDS011;6172;42.646;23.344;2023-03-08T08:14:49;8.20;;;4.30;;
12218;SDS011;6172;42.646;23.344;2023-03-08T08:17:17;7.83;;;4.53;;
12218;SDS011;6172;42.646;23.344;2023-03-08T08:19:48;11.00;;;4.00;;
12218;SDS011;6172;42.646;23.344;2023-03-08T08:22:16;9.77;;;4.23;;
12218;SDS011;6172;42.646;23.344;2023-03-08T08:24:43;6.67;;;3.70;;
12218;SDS011;6172;42.646;23.344;2023-03-08T08:27:11;8.60;;;3.70;;
12218;SDS011;6172;42.646;23.344;2023-03-08T08:29:41;8.63;;;4.40;;
12218;SDS011;6172;42.646;23.344;2023-03-08T08:32:10;9.83;;;4.70;;
12218;SDS011;6172;42.646;23.344;2023-03-08T08:34:37;7.03;;;4.20;;
12218;SDS011;6172;42.646;23.344;2023-03-08T08:37:06;10.67;;;5.33;;
12218;SDS011;6172;42.646;23.344;2023-03-08T08:39:33;10.17;;;4.37;;
12218;SDS011;6172;42.646;23.344;2023-03-08T08:42:01;10.23;;;4.20;;
12218;SDS011;6172;42.646;23.344;2023-03-08T08:44:28;9.07;;;4.43;;
12218;SDS011;6172;42.646;23.344;2023-03-08T08:47:01;9.83;;;4.43;;
12218;SDS011;6172;42.646;23.344;2023-03-08T08:49:29;8.67;;;4.43;;
12218;SDS011;6172;42.646;23.344;2023-03-08T08:51:56;8.23;;;4.30;;
12218;SDS011;6172;42.646;23.344;2023-03-08T08:54:26;7.83;;;4.60;;
12218;SDS011;6172;42.646;23.344;2023-03-08T08:56:53;8.53;;;4.37;;
12218;SDS011;6172;42.646;23.344;2023-03-08T08:59:20;11.33;;;4.47;;
12218;SDS011;6172;42.646;23.344;2023-03-08T09:01:47;10.03;;;3.90;;
12218;SDS011;6172;42.646;23.344;2023-03-08T09:04:14;10.60;;;4.57;;
12218;SDS011;6172;42.646;23.344;2023-03-08T09:06:42;7.13;;;4.40;;
12218;SDS011;6172;42.646;23.344;2023-03-08T09:09:09;7.93;;;4.40;;
12218;SDS011;6172;42.646;23.344;2023-03-08T09:11:38;12.63;;;4.57;;
12218;SDS011;6172;42.646;23.344;2023-03-08T09:14:06;9.73;;;5.00;;
12218;SDS011;6172;42.646;23.344;2023-03-08T09:16:33;12.10;;;4.93;;
12218;SDS011;6172;42.646;23.344;2023-03-08T09:19:01;9.23;;;4.53;;
12218;SDS011;6172;42.646;23.344;2023-03-08T09:21:30;12.53;;;4.90;;
12218;SDS011;6172;42.646;23.344;2023-03-08T09:23:58;9.80;;;5.37;;
12218;SDS011;6172;42.646;23.344;2023-03-08T09:26:28;6.80;;;4.87;;
12218;SDS011;6172;42.646;23.344;2023-03-08T09:28:58;11.17;;;5.67;;
12218;SDS011;6172;42.646;23.344;2023-03-08T09:31:29;12.23;;;4.97;;
12218;SDS011;6172;42.646;23.344;2023-03-08T09:33:59;13.97;;;5.77;;
12218;SDS011;6172;42.646;23.344;2023-03-08T09:36:28;10.13;;;5.03;;
12218;SDS011;6172;42.646;23.344;2023-03-08T09:38:56;9.00;;;5.17;;
12218;SDS011;6172;42.646;23.344;2023-03-08T09:41:29;12.40;;;6.20;;
12218;SDS011;6172;42.646;23.344;2023-03-08T09:44:29;19.67;;;6.37;;
12218;SDS011;6172;42.646;23.344;2023-03-08T09:47:12;15.43;;;5.77;;
12218;SDS011;6172;42.646;23.344;2023-03-08T09:49:48;10.67;;;5.07;;
12218;SDS011;6172;42.646;23.344;2023-03-08T09:52:19;8.60;;;5.10;;
12218;SDS011;6172;42.646;23.344;2023-03-08T09:54:50;9.23;;;4.97;;
12218;SDS011;6172;42.646;23.344;2023-03-08T09:57:20;7.57;;;4.90;;
12218;SDS011;6172;42.646;23.344;2023-03-08T09:59:52;9.70;;;4.93;;
12218;SDS011;6172;42.646;23.344;2023-03-08T10:02:24;12.67;;;5.47;;
12218;SDS011;6172;42.646;23.344;2023-03-08T10:05:03;11.50;;;4.90;;
12218;SDS011;6172;42.646;23.344;2023-03-08T10:07:36;7.83;;;4.93;;
12218;SDS011;6172;42.646;23.344;2023-03-08T10:10:22;8.20;;;5.03;;
12218;SDS011;6172;42.646;23.344;2023-03-08T10:13:03;9.80;;;5.40;;
12218;SDS011;6172;42.646;23.344;2023-03-08T10:15:42;7.73;;;5.40;;
12218;SDS011;6172;42.646;23.344;2023-03-08T10:18:17;9.67;;;5.53;;
12218;SDS011;6172;42.646;23.344;2023-03-08T10:20:49;10.07;;;5.40;;
12218;SDS011;6172;42.646;23.344;2023-03-08T10:23:17;9.00;;;4.80;;
12218;SDS011;6172;42.646;23.344;2023-03-08T10:25:45;10.47;;;5.77;;
12218;SDS011;6172;42.646;23.344;2023-03-08T10:28:14;13.70;;;5.97;;
12218;SDS011;6172;42.646;23.344;2023-03-08T10:30:45;11.60;;;6.20;;
12218;SDS011;6172;42.646;23.344;2023-03-08T10:33:14;10.43;;;6.13;;
12218;SDS011;6172;42.646;23.344;2023-03-08T10:35:54;9.57;;;6.30;;
12218;SDS011;6172;42.646;23.344;2023-03-08T10:38:41;11.63;;;5.47;;
12218;SDS011;6172;42.646;23.344;2023-03-08T10:41:11;10.50;;;5.80;;
12218;SDS011;6172;42.646;23.344;2023-03-08T10:43:43;10.50;;;6.13;;
12218;SDS011;6172;42.646;23.344;2023-03-08T10:46:14;9.87;;;6.47;;
12218;SDS011;6172;42.646;23.344;2023-03-08T10:48:42;9.30;;;5.87;;
12218;SDS011;6172;42.646;23.344;2023-03-08T10:51:16;12.40;;;5.57;;
12218;SDS011;6172;42.646;23.344;2023-03-08T10:53:51;16.20;;;7.17;;
12218;SDS011;6172;42.646;23.344;2023-03-08T10:56:21;11.43;;;5.67;;
12218;SDS011;6172;42.646;23.344;2023-03-08T10:58:52;6.90;;;4.70;;
12218;SDS011;6172;42.646;23.344;2023-03-08T11:01:24;7.33;;;4.87;;
12218;SDS011;6172;42.646;23.344;2023-03-08T11:03:59;10.07;;;4.60;;
12218;SDS011;6172;42.646;23.344;2023-03-08T11:06:27;8.83;;;4.07;;
12218;SDS011;6172;42.646;23.344;2023-03-08T11:08:56;9.43;;;4.00;;
12218;SDS011;6172;42.646;23.344;2023-03-08T11:11:25;9.67;;;3.70;;
12218;SDS011;6172;42.646;23.344;2023-03-08T11:13:52;8.50;;;3.93;;
12218;SDS011;6172;42.646;23.344;2023-03-08T11:19:24;5.57;;;3.93;;
12218;SDS011;6172;42.646;23.344;2023-03-08T11:21:59;7.97;;;4.40;;
12218;SDS011;6172;42.646;23.344;2023-03-08T11:24:46;7.70;;;4.13;;
12218;SDS011;6172;42.646;23.344;2023-03-08T11:27:34;9.37;;;4.53;;
12218;SDS011;6172;42.646;23.344;2023-03-08T11:30:13;10.33;;;5.13;;
12218;SDS011;6172;42.646;23.344;2023-03-08T11:33:02;9.13;;;4.10;;
12218;SDS011;6172;42.646;23.344;2023-03-08T11:35:44;11.67;;;4.87;;
12218;SDS011;6172;42.646;23.344;2023-03-08T11:38:17;10.43;;;4.80;;
12218;SDS011;6172;42.646;23.344;2023-03-08T11:40:50;9.10;;;4.50;;
12218;SDS011;6172;42.646;23.344;2023-03-08T11:43:30;6.60;;;3.60;;
12218;SDS011;6172;42.646;23.344;2023-03-08T11:46:12;5.60;;;3.58;;
12218;SDS011;6172;42.646;23.344;2023-03-08T11:49:03;6.03;;;2.78;;
12218;SDS011;6172;42.646;23.344;2023-03-08T11:51:42;4.95;;;2.83;;
12218;SDS011;6172;42.646;23.344;2023-03-08T11:54:17;6.40;;;3.05;;
12218;SDS011;6172;42.646;23.344;2023-03-08T11:56:55;4.90;;;3.15;;
12218;SDS011;6172;42.646;23.344;2023-03-08T11:59:28;9.05;;;3.97;;
12218;SDS011;6172;42.646;23.344;2023-03-08T12:01:59;8.17;;;3.30;;
12218;SDS011;6172;42.646;23.344;2023-03-08T12:04:33;8.70;;;2.47;;
12218;SDS011;6172;42.646;23.344;2023-03-08T12:07:05;5.90;;;2.90;;
12218;SDS011;6172;42.646;23.344;2023-03-08T12:09:44;4.13;;;2.43;;
12218;SDS011;6172;42.646;23.344;2023-03-08T12:12:21;4.43;;;1.73;;
12218;SDS011;6172;42.646;23.344;2023-03-08T12:14:54;2.60;;;1.63;;
12218;SDS011;6172;42.646;23.344;2023-03-08T12:17:26;2.43;;;0.97;;
12218;SDS011;6172;42.646;23.344;2023-03-08T12:20:01;1.53;;;0.77;;
12218;SDS011;6172;42.646;23.344;2023-03-08T12:22:35;1.53;;;0.80;;
12218;SDS011;6172;42.646;23.344;2023-03-08T12:25:16;3.80;;;1.20;;
12218;SDS011;6172;42.646;23.344;2023-03-08T12:27:51;4.50;;;1.40;;
12218;SDS011;6172;42.646;23.344;2023-03-08T12:30:24;4.37;;;1.70;;
12218;SDS011;6172;42.646;23.344;2023-03-08T12:33:07;3.53;;;0.90;;
12218;SDS011;6172;42.646;23.344;2023-03-08T12:35:48;3.17;;;1.20;;
12218;SDS011;6172;42.646;23.344;2023-03-08T12:38:33;2.60;;;0.90;;
12218;SDS011;6172;42.646;23.344;2023-03-08T12:41:02;2.50;;;0.90;;
12218;SDS011;6172;42.646;23.344;2023-03-08T12:43:33;3.77;;;1.20;;
12218;SDS011;6172;42.646;23.344;2023-03-08T12:46:05;3.20;;;1.50;;
12218;SDS011;6172;42.646;23.344;2023-03-08T12:48:34;2.63;;;0.82;;
12218;SDS011;6172;42.646;23.344;2023-03-08T12:51:16;3.83;;;1.10;;
12218;SDS011;6172;42.646;23.344;2023-03-08T12:53:54;6.73;;;1.17;;
12218;SDS011;6172;42.646;23.344;2023-03-08T12:56:26;6.80;;;1.25;;
12218;SDS011;6172;42.646;23.344;2023-03-08T12:58:56;5.15;;;1.30;;
12218;SDS011;6172;42.646;23.344;2023-03-08T13:01:32;4.07;;;0.70;;
12218;SDS011;6172;42.646;23.344;2023-03-08T13:04:02;7.45;;;1.13;;
12218;SDS011;6172;42.646;23.344;2023-03-08T13:06:35;6.25;;;0.93;;
12218;SDS011;6172;42.646;23.344;2023-03-08T13:09:24;3.47;;;1.00;;
12218;SDS011;6172;42.646;23.344;2023-03-08T13:11:55;3.45;;;0.70;;
12218;SDS011;6172;42.646;23.344;2023-03-08T13:14:38;2.35;;;0.90;;
12218;SDS011;6172;42.646;23.344;2023-03-08T13:20:08;3.27;;;0.90;;
12218;SDS011;6172;42.646;23.344;2023-03-08T13:22:46;4.43;;;0.80;;
12218;SDS011;6172;42.646;23.344;2023-03-08T13:25:37;1.47;;;0.50;;
12218;SDS011;6172;42.646;23.344;2023-03-08T13:28:12;1.67;;;0.50;;
12218;SDS011;6172;42.646;23.344;2023-03-08T13:30:44;1.60;;;0.53;;
12218;SDS011;6172;42.646;23.344;2023-03-08T13:33:18;9.60;;;1.33;;
12218;SDS011;6172;42.646;23.344;2023-03-08T13:35:56;12.48;;;1.80;;
12218;SDS011;6172;42.646;23.344;2023-03-08T13:38:29;9.68;;;1.40;;
12218;SDS011;6172;42.646;23.344;2023-03-08T13:40:58;2.40;;;0.60;;
12218;SDS011;6172;42.646;23.344;2023-03-08T13:43:28;6.27;;;0.90;;
12218;SDS011;6172;42.646;23.344;2023-03-08T13:45:57;3.83;;;0.70;;
12218;SDS011;6172;42.646;23.344;2023-03-08T13:48:50;4.60;;;1.02;;
12218;SDS011;6172;42.646;23.344;2023-03-08T13:51:18;7.40;;;1.08;;
12218;SDS011;6172;42.646;23.344;2023-03-08T13:53:49;6.00;;;1.23;;
12218;SDS011;6172;42.646;23.344;2023-03-08T13:56:19;6.40;;;0.95;;
12218;SDS011;6172;42.646;23.344;2023-03-08T13:58:52;3.23;;;0.80;;
12218;SDS011;6172;42.646;23.344;2023-03-08T14:01:22;3.13;;;0.80;;
12218;SDS011;6172;42.646;23.344;2023-03-08T14:03:51;8.33;;;0.90;;
12218;SDS011;6172;42.646;23.344;2023-03-08T14:06:21;2.80;;;0.90;;
12218;SDS011;6172;42.646;23.344;2023-03-08T14:08:52;6.47;;;0.83;;
12218;SDS011;6172;42.646;23.344;2023-03-08T14:11:23;5.43;;;0.83;;
12218;SDS011;6172;42.646;23.344;2023-03-08T14:13:54;2.30;;;0.70;;
12218;SDS011;6172;42.646;23.344;2023-03-08T14:16:24;5.73;;;1.07;;
12218;SDS011;6172;42.646;23.344;2023-03-08T14:18:55;9.17;;;1.17;;
12218;SDS011;6172;42.646;23.344;2023-03-08T14:21:24;3.47;;;0.87;;
12218;SDS011;6172;42.646;23.344;2023-03-08T14:26:52;4.23;;;0.50;;
12218;SDS011;6172;42.646;23.344;2023-03-08T14:29:32;2.57;;;0.60;;
12218;SDS011;6172;42.646;23.344;2023-03-08T14:34:37;5.03;;;0.90;;
12218;SDS011;6172;42.646;23.344;2023-03-08T14:37:06;3.70;;;0.93;;
12218;SDS011;6172;42.646;23.344;2023-03-08T14:39:48;1.83;;;0.50;;
12218;SDS011;6172;42.646;23.344;2023-03-08T14:42:17;3.63;;;0.90;;
12218;SDS011;6172;42.646;23.344;2023-03-08T14:44:55;7.77;;;1.50;;
12218;SDS011;6172;42.646;23.344;2023-03-08T14:47:27;2.10;;;1.00;;
12218;SDS011;6172;42.646;23.344;2023-03-08T14:50:00;0.80;;;0.67;;
12218;SDS011;6172;42.646;23.344;2023-03-08T14:52:28;3.63;;;1.00;;
12218;SDS011;6172;42.646;23.344;2023-03-08T14:54:59;8.57;;;1.07;;
12218;SDS011;6172;42.646;23.344;2023-03-08T14:57:28;3.57;;;0.90;;
12218;SDS011;6172;42.646;23.344;2023-03-08T15:00:01;4.40;;;0.60;;
12218;SDS011;6172;42.646;23.344;2023-03-08T15:02:38;1.13;;;0.70;;
12218;SDS011;6172;42.646;23.344;2023-03-08T15:05:11;1.63;;;0.40;;
12218;SDS011;6172;42.646;23.344;2023-03-08T15:07:39;1.70;;;0.60;;
12218;SDS011;6172;42.646;23.344;2023-03-08T15:10:17;2.03;;;0.97;;
12218;SDS011;6172;42.646;23.344;2023-03-08T15:13:01;2.70;;;0.80;;
12218;SDS011;6172;42.646;23.344;2023-03-08T15:15:29;6.33;;;0.67;;
12218;SDS011;6172;42.646;23.344;2023-03-08T15:17:59;1.17;;;0.50;;
12218;SDS011;6172;42.646;23.344;2023-03-08T15:20:28;0.53;;;0.37;;
12218;SDS011;6172;42.646;23.344;2023-03-08T15:22:58;1.07;;;0.43;;